Time;durP1;ratioP1;P1;durP2;ratioP2;P2;SDS_P1;SDS_P2;PMS_P1;PMS_P2;Temp;Humidity;BMP_temperature;BMP_pressure;BME280_temperature;BME280_humidity;BME280_pressure;Samples;Min_cycle;Max_cycle;Signal;HPM_P1;HPM_P2
2023/09/24 00:00:56;;;;;;;25.30;5.43;;;;;;;21.76;69.21;94460.25;5152718;27;20275;-46
2023/09/24 00:03:22;;;;;;;24.38;5.50;;;;;;;21.77;69.64;94469.66;5152135;27;20203;-45
2023/09/24 00:05:51;;;;;;;29.27;6.05;;;;;;;21.73;69.81;94474.50;5152214;27;20192;-45
2023/09/24 00:08:18;;;;;;;26.33;6.18;;;;;;;21.70;69.69;94464.50;5152264;27;20180;-46
2023/09/24 00:10:47;;;;;;;28.10;5.68;;;;;;;21.72;68.95;94467.69;5152138;27;20231;-47
2023/09/24 00:13:14;;;;;;;20.30;5.47;;;;;;;21.71;69.06;94460.88;5152056;27;20244;-46
2023/09/24 00:15:41;;;;;;;20.63;5.80;;;;;;;21.71;69.41;94468.69;5151983;27;20277;-45
2023/09/24 00:18:07;;;;;;;24.17;5.47;;;;;;;21.68;69.42;94470.94;5151666;27;20248;-45
2023/09/24 00:20:34;;;;;;;20.75;5.63;;;;;;;21.71;69.65;94470.50;5151804;27;20195;-47
2023/09/24 00:23:03;;;;;;;19.52;5.97;;;;;;;21.66;69.33;94478.16;5151749;27;20199;-44
2023/09/24 00:25:29;;;;;;;25.73;5.78;;;;;;;21.63;69.60;94470.75;5151601;27;20263;-47
2023/09/24 00:27:56;;;;;;;26.10;6.18;;;;;;;21.59;69.44;94480.00;5151705;27;20234;-46
2023/09/24 00:30:23;;;;;;;28.83;5.90;;;;;;;21.55;69.12;94477.03;5151818;27;20193;-50
2023/09/24 00:32:52;;;;;;;23.25;6.10;;;;;;;21.52;69.27;94480.84;5151558;27;20192;-45
2023/09/24 00:35:19;;;;;;;22.05;5.25;;;;;;;21.48;69.13;94481.47;5151866;27;20305;-45
2023/09/24 00:37:46;;;;;;;20.13;5.90;;;;;;;21.46;69.46;94486.09;5151517;27;20222;-45
2023/09/24 00:40:14;;;;;;;28.15;6.82;;;;;;;21.39;70.07;94480.94;5151702;27;20187;-46
2023/09/24 00:42:41;;;;;;;28.98;5.65;;;;;;;21.38;70.36;94488.97;5151470;27;20607;-46
2023/09/24 00:45:11;;;;;;;20.52;5.65;;;;;;;21.34;70.63;94482.56;5151148;27;20192;-45
2023/09/24 00:47:39;;;;;;;28.42;5.63;;;;;;;21.32;71.02;94487.16;5151304;27;20242;-46
2023/09/24 00:50:09;;;;;;;17.33;5.15;;;;;;;21.30;70.66;94480.34;5151248;27;20191;-45
2023/09/24 00:52:36;;;;;;;19.70;5.65;;;;;;;21.14;70.89;94454.03;5151546;27;20188;-45
2023/09/24 00:55:06;;;;;;;29.48;6.30;;;;;;;21.26;71.15;94467.97;5151321;27;20236;-47
2023/09/24 00:57:34;;;;;;;22.58;5.53;;;;;;;21.01;71.46;94428.91;5151747;27;20179;-46
2023/09/24 01:00:05;;;;;;;28.55;6.22;;;;;;;21.20;71.58;94463.59;5150801;27;20251;-47
2023/09/24 01:02:34;;;;;;;15.07;5.70;;;;;;;21.18;71.84;94463.00;5151301;27;20240;-45
2023/09/24 01:05:01;;;;;;;21.00;5.50;;;;;;;21.13;72.61;94460.25;5150891;27;20240;-46
2023/09/24 01:07:30;;;;;;;27.02;5.70;;;;;;;21.09;72.74;94462.47;5151205;27;20219;-45
2023/09/24 01:09:57;;;;;;;22.42;5.95;;;;;;;21.05;72.75;94467.28;5150644;27;20191;-45
2023/09/24 01:12:25;;;;;;;24.58;5.65;;;;;;;21.03;72.86;94460.72;5150959;27;20199;-45
2023/09/24 01:14:54;;;;;;;27.45;6.00;;;;;;;21.02;72.94;94461.69;5150836;27;20211;-47
2023/09/24 01:17:23;;;;;;;21.92;5.47;;;;;;;20.99;73.44;94462.91;5150815;27;20304;-46
2023/09/24 01:19:52;;;;;;;22.05;5.35;;;;;;;20.96;73.82;94452.13;5150730;27;20275;-46
2023/09/24 01:22:20;;;;;;;16.52;5.18;;;;;;;20.92;74.23;94453.56;5151425;27;20184;-47
2023/09/24 01:24:47;;;;;;;23.98;5.07;;;;;;;20.87;74.42;94451.56;5150728;27;20549;-45
2023/09/24 01:27:14;;;;;;;24.55;5.78;;;;;;;20.84;74.88;94451.19;5150564;27;20229;-46
2023/09/24 01:29:42;;;;;;;22.17;5.90;;;;;;;20.74;75.02;94428.25;5150925;27;20195;-44
2023/09/24 01:32:09;;;;;;;28.30;5.88;;;;;;;20.76;75.49;94432.22;5151159;27;20183;-45
2023/09/24 01:34:35;;;;;;;22.90;5.85;;;;;;;20.74;75.44;94429.03;5150758;27;20191;-45
2023/09/24 01:37:08;;;;;;;19.45;6.15;;;;;;;20.72;75.73;94433.63;5150826;27;20196;-45
2023/09/24 01:39:36;;;;;;;19.17;5.90;;;;;;;20.67;76.15;94435.25;5150871;27;20274;-47
2023/09/24 01:42:03;;;;;;;22.20;5.70;;;;;;;20.62;76.41;94430.69;5150583;27;20275;-46
2023/09/24 01:44:32;;;;;;;22.52;6.15;;;;;;;20.59;76.68;94438.88;5150752;27;20180;-46
2023/09/24 01:46:59;;;;;;;20.00;6.00;;;;;;;20.57;77.03;94434.91;5150321;27;20208;-47
2023/09/24 01:49:27;;;;;;;21.90;5.63;;;;;;;20.49;77.18;94422.94;5151091;27;20176;-46
2023/09/24 01:51:54;;;;;;;24.60;6.20;;;;;;;20.49;77.75;94418.53;5150347;27;20215;-45
2023/09/24 01:54:21;;;;;;;27.17;6.07;;;;;;;20.48;77.68;94429.94;5150577;27;20184;-45
2023/09/24 01:56:49;;;;;;;21.77;6.13;;;;;;;20.44;77.78;94423.53;5132051;27;20187;-47
2023/09/24 01:59:17;;;;;;;23.17;6.15;;;;;;;20.40;77.97;94422.34;5150398;27;20188;-47
2023/09/24 02:01:44;;;;;;;16.45;5.72;;;;;;;20.38;78.39;94421.75;5150726;27;20419;-45
2023/09/24 02:04:10;;;;;;;18.75;5.53;;;;;;;20.36;78.51;94417.75;5150713;27;20244;-45
2023/09/24 02:06:37;;;;;;;16.92;5.57;;;;;;;20.33;78.99;94416.34;5150673;27;20203;-46
2023/09/24 02:09:04;;;;;;;27.70;5.38;;;;;;;20.32;79.00;94422.56;5150547;27;20605;-46
2023/09/24 02:11:32;;;;;;;18.65;5.60;;;;;;;20.31;79.15;94420.97;5150171;27;20719;-45
2023/09/24 02:14:00;;;;;;;20.92;5.00;;;;;;;20.29;79.32;94430.75;5150424;27;20643;-44
2023/09/24 02:16:28;;;;;;;27.10;6.22;;;;;;;20.28;79.27;94424.75;5150542;27;20709;-45
2023/09/24 02:18:54;;;;;;;23.52;6.07;;;;;;;20.26;79.40;94424.19;5150709;27;20728;-45
2023/09/24 02:21:21;;;;;;;19.98;5.68;;;;;;;20.26;79.04;94428.56;5151259;27;20183;-47
2023/09/24 02:23:48;;;;;;;20.27;6.03;;;;;;;20.24;79.61;94433.16;5154078;27;20184;-46
2023/09/24 02:26:15;;;;;;;20.00;5.53;;;;;;;20.23;79.53;94434.97;5154063;27;20253;-46
2023/09/24 02:28:42;;;;;;;23.83;6.95;;;;;;;19.75;80.00;94359.19;5154752;27;20235;-46
2023/09/24 02:31:12;;;;;;;18.27;5.37;;;;;;;20.21;80.13;94439.56;5154935;27;20632;-47
2023/09/24 02:33:39;;;;;;;30.73;5.75;;;;;;;20.19;80.25;94430.38;5154750;27;20187;-48
2023/09/24 02:36:08;;;;;;;21.35;6.88;;;;;;;20.19;80.46;94427.78;5154639;27;20214;-46
2023/09/24 02:38:35;;;;;;;17.17;5.22;;;;;;;20.16;80.94;94428.19;5154385;27;20560;-47
2023/09/24 02:41:02;;;;;;;23.10;5.90;;;;;;;20.14;80.88;94432.78;5154685;27;20192;-45
2023/09/24 02:43:32;;;;;;;21.83;6.00;;;;;;;20.14;81.01;94436.19;5153925;27;20210;-45
2023/09/24 02:45:59;;;;;;;21.25;6.22;;;;;;;20.10;81.06;94440.19;5153962;27;20666;-45
2023/09/24 02:48:27;;;;;;;22.73;5.50;;;;;;;20.09;80.99;94435.19;5153611;27;20237;-47
2023/09/24 02:50:54;;;;;;;24.50;6.38;;;;;;;20.05;80.67;94427.81;5153874;27;20371;-46
2023/09/24 02:53:21;;;;;;;13.98;5.40;;;;;;;20.02;80.49;94410.03;5153467;27;20195;-46
2023/09/24 02:55:48;;;;;;;18.50;5.60;;;;;;;20.06;80.30;94428.59;5153492;27;20648;-46
2023/09/24 02:58:15;;;;;;;30.20;6.03;;;;;;;20.03;80.28;94427.22;5153591;27;20192;-46
2023/09/24 03:00:42;;;;;;;21.45;6.65;;;;;;;20.02;79.96;94433.41;5153767;27;20210;-47
2023/09/24 03:03:10;;;;;;;22.80;6.13;;;;;;;20.04;79.78;94434.00;5153611;27;20240;-46
2023/09/24 03:05:38;;;;;;;19.92;5.25;;;;;;;20.01;79.98;94434.41;5153265;27;20279;-46
2023/09/24 03:08:08;;;;;;;17.80;4.88;;;;;;;20.02;79.92;94432.59;5153203;27;20306;-47
2023/09/24 03:10:36;;;;;;;20.30;5.97;;;;;;;19.98;80.10;94432.22;5153356;27;20183;-46
2023/09/24 03:13:04;;;;;;;23.05;5.80;;;;;;;19.95;80.26;94434.44;5153529;27;20302;-46
2023/09/24 03:15:31;;;;;;;18.60;5.85;;;;;;;19.96;80.56;94438.63;5153222;27;20292;-46
2023/09/24 03:17:58;;;;;;;24.30;5.85;;;;;;;19.96;80.35;94433.44;5153207;27;20233;-45
2023/09/24 03:20:26;;;;;;;27.25;5.63;;;;;;;19.94;79.90;94436.19;5153187;27;20220;-46
2023/09/24 03:23:01;;;;;;;18.23;6.20;;;;;;;19.89;80.09;94430.81;5152901;27;20641;-47
2023/09/24 03:25:28;;;;;;;20.73;5.40;;;;;;;19.89;79.93;94440.41;5152796;27;20633;-46
2023/09/24 03:27:56;;;;;;;25.00;5.35;;;;;;;19.87;79.87;94439.81;5153087;27;20311;-46
2023/09/24 03:30:24;;;;;;;20.95;6.13;;;;;;;19.85;79.70;94447.00;5152749;27;20192;-44
2023/09/24 03:32:52;;;;;;;19.13;6.18;;;;;;;19.84;79.68;94451.41;5152495;27;20190;-47
2023/09/24 03:35:23;;;;;;;21.85;5.20;;;;;;;19.84;79.68;94450.59;5152456;27;20191;-44
2023/09/24 03:37:50;;;;;;;28.73;5.97;;;;;;;19.84;79.92;94441.00;5152777;27;20187;-45
2023/09/24 03:40:19;;;;;;;26.08;5.88;;;;;;;19.85;80.13;94440.00;5152865;27;20195;-46
2023/09/24 03:42:46;;;;;;;24.52;7.30;;;;;;;19.74;80.10;94425.84;5152812;27;20185;-45
2023/09/24 03:45:14;;;;;;;24.35;6.40;;;;;;;19.77;80.19;94437.63;5152471;27;20247;-46
2023/09/24 03:47:41;;;;;;;31.27;6.88;;;;;;;19.75;80.64;94450.00;5152542;27;20325;-44
2023/09/24 03:50:13;;;;;;;25.67;5.97;;;;;;;19.24;81.06;94378.72;5152709;27;20644;-45
2023/09/24 03:52:40;;;;;;;21.00;5.97;;;;;;;19.64;81.22;94450.59;5152822;27;20233;-45
2023/09/24 03:55:07;;;;;;;21.50;5.97;;;;;;;19.65;81.68;94454.81;5152655;27;20674;-45
2023/09/24 03:57:35;;;;;;;16.88;5.22;;;;;;;19.62;81.82;94450.00;5152184;27;20281;-44
2023/09/24 04:00:04;;;;;;;19.83;5.30;;;;;;;19.58;82.05;94446.97;5152256;27;20183;-45
2023/09/24 04:02:33;;;;;;;21.03;6.73;;;;;;;19.59;81.83;94452.97;5152016;27;20180;-45
2023/09/24 04:05:00;;;;;;;24.03;6.57;;;;;;;19.55;82.06;94460.34;5152240;27;20191;-46
2023/09/24 04:07:27;;;;;;;17.57;5.90;;;;;;;19.54;82.34;94459.53;5151884;27;20268;-46
2023/09/24 04:09:55;;;;;;;20.40;5.70;;;;;;;19.53;82.62;94457.94;5152382;27;20555;-46
2023/09/24 04:12:22;;;;;;;15.53;5.90;;;;;;;19.51;82.42;94461.72;5152006;27;20280;-45
2023/09/24 04:14:54;;;;;;;21.63;6.47;;;;;;;19.58;82.03;94475.50;5152117;27;20188;-45
2023/09/24 04:17:21;;;;;;;21.97;6.53;;;;;;;19.62;81.36;94486.31;5151837;27;20279;-47
2023/09/24 04:19:48;;;;;;;18.70;6.17;;;;;;;19.61;81.35;94495.09;5152189;27;20187;-48
2023/09/24 04:22:15;;;;;;;27.80;6.47;;;;;;;19.30;81.51;94471.28;5152011;27;20191;-46
2023/09/24 04:24:42;;;;;;;20.73;5.73;;;;;;;19.52;81.52;94515.22;5152239;27;20640;-44
2023/09/24 04:27:09;;;;;;;21.05;5.80;;;;;;;19.50;82.04;94505.03;5151250;27;20329;-46
2023/09/24 04:29:35;;;;;;;20.33;5.43;;;;;;;19.54;82.06;94529.56;5151666;27;20195;-45
2023/09/24 04:32:04;;;;;;;21.80;6.10;;;;;;;19.56;81.99;94521.63;5151311;27;20191;-47
2023/09/24 04:34:30;;;;;;;23.33;7.37;;;;;;;19.57;81.85;94520.63;5151762;27;20175;-47
2023/09/24 04:36:57;;;;;;;25.73;7.50;;;;;;;19.56;82.06;94511.25;5151616;27;20289;-45
2023/09/24 04:39:24;;;;;;;23.27;6.07;;;;;;;19.59;82.04;94517.81;5151574;27;20195;-46
2023/09/24 04:41:51;;;;;;;19.23;6.17;;;;;;;19.63;82.16;94517.25;5151743;27;20206;-47
2023/09/24 04:44:17;;;;;;;17.37;6.63;;;;;;;19.67;81.77;94520.25;5150870;27;20218;-45
2023/09/24 04:46:44;;;;;;;19.87;6.57;;;;;;;19.73;82.00;94519.44;5151233;27;20214;-45
2023/09/24 04:49:12;;;;;;;17.20;5.65;;;;;;;19.76;82.32;94519.84;5151275;27;20268;-45
2023/09/24 04:51:39;;;;;;;12.93;5.63;;;;;;;19.82;82.20;94520.06;5151812;27;20264;-44
2023/09/24 04:54:06;;;;;;;20.97;5.63;;;;;;;19.73;81.99;94504.69;5151123;27;20187;-46
2023/09/24 04:56:33;;;;;;;20.17;6.45;;;;;;;19.89;82.50;94518.28;5151272;27;20192;-46
2023/09/24 04:59:00;;;;;;;16.77;6.10;;;;;;;19.95;82.45;94523.47;5151358;27;20184;-47
2023/09/24 05:01:27;;;;;;;15.52;6.75;;;;;;;20.00;82.27;94528.88;5151238;27;20623;-46
2023/09/24 05:03:54;;;;;;;21.23;7.43;;;;;;;20.04;82.52;94522.28;5151243;27;20244;-46
2023/09/24 05:06:23;;;;;;;21.33;6.55;;;;;;;20.09;82.56;94513.88;5151241;27;20180;-45
2023/09/24 05:08:49;;;;;;;24.93;6.10;;;;;;;20.20;82.30;94515.84;5151119;27;20584;-45
2023/09/24 05:11:16;;;;;;;15.10;6.10;;;;;;;20.26;82.26;94528.06;5151642;27;20192;-45
2023/09/24 05:13:43;;;;;;;29.47;7.13;;;;;;;20.37;81.72;94516.25;5151557;27;20190;-46
2023/09/24 05:16:10;;;;;;;35.78;7.35;;;;;;;20.50;80.97;94518.84;5150799;27;20227;-47
2023/09/24 05:18:37;;;;;;;23.92;7.30;;;;;;;20.64;79.99;94519.63;5151361;27;20560;-47
2023/09/24 05:21:05;;;;;;;19.20;5.95;;;;;;;20.58;80.70;94473.66;5150843;27;20194;-45
2023/09/24 05:23:33;;;;;;;18.83;6.03;;;;;;;20.88;80.56;94532.94;5151083;27;20199;-45
2023/09/24 05:26:01;;;;;;;27.40;6.97;;;;;;;21.06;80.19;94520.06;5150911;27;20223;-45
2023/09/24 05:28:28;;;;;;;14.05;6.38;;;;;;;21.19;77.83;94527.81;5150743;27;20223;-46
2023/09/24 05:30:54;;;;;;;22.60;6.80;;;;;;;21.20;76.89;94513.84;5150332;27;20196;-46
2023/09/24 05:33:22;;;;;;;20.05;6.57;;;;;;;21.51;76.66;94536.50;5150913;27;20179;-46
2023/09/24 05:35:52;;;;;;;17.10;6.03;;;;;;;21.66;77.08;94533.59;5150681;27;20244;-47
2023/09/24 05:38:20;;;;;;;20.63;6.15;;;;;;;21.71;75.42;94541.56;5151245;27;20663;-48
2023/09/24 05:40:48;;;;;;;26.48;7.40;;;;;;;21.73;75.11;94539.56;5150695;27;20637;-47
2023/09/24 05:43:17;;;;;;;15.00;6.10;;;;;;;21.71;75.04;94509.53;5151138;27;20184;-47
2023/09/24 05:45:46;;;;;;;18.38;5.53;;;;;;;21.91;74.74;94532.84;5150250;27;20248;-46
2023/09/24 05:48:14;;;;;;;17.77;6.78;;;;;;;22.03;74.25;94544.19;5150992;27;20294;-46
2023/09/24 05:50:42;;;;;;;18.98;6.65;;;;;;;22.07;73.36;94508.09;5150687;27;20243;-45
2023/09/24 05:53:09;;;;;;;21.73;6.10;;;;;;;22.50;71.40;94539.41;5150787;27;20276;-46
2023/09/24 05:55:36;;;;;;;13.65;4.38;;;;;;;22.67;70.25;94545.66;5151649;27;20191;-47
2023/09/24 05:58:05;;;;;;;17.85;5.40;;;;;;;22.91;69.12;94541.41;5154389;27;20191;-45
2023/09/24 06:00:33;;;;;;;15.25;5.45;;;;;;;23.03;68.76;94549.31;5154891;27;20222;-47
2023/09/24 06:03:00;;;;;;;22.95;5.75;;;;;;;23.13;68.19;94546.97;5154559;27;20209;-45
2023/09/24 06:05:28;;;;;;;25.92;6.13;;;;;;;23.04;67.93;94512.56;5154769;27;20191;-44
2023/09/24 06:07:55;;;;;;;17.58;5.53;;;;;;;23.37;67.14;94549.72;5154680;27;20311;-45
2023/09/24 06:10:22;;;;;;;14.27;5.57;;;;;;;23.61;66.19;94546.16;5154392;27;20192;-45
2023/09/24 06:12:49;;;;;;;15.25;4.35;;;;;;;23.78;65.86;94548.97;5154438;27;20583;-46
2023/09/24 06:15:18;;;;;;;15.57;5.13;;;;;;;24.09;65.34;94554.94;5154775;27;20203;-45
2023/09/24 06:17:46;;;;;;;19.23;5.60;;;;;;;24.37;64.72;94542.06;5153977;27;20649;-46
2023/09/24 06:20:14;;;;;;;19.88;6.55;;;;;;;24.50;63.62;94543.66;5154145;27;20594;-48
2023/09/24 06:22:41;;;;;;;18.67;6.18;;;;;;;24.73;63.06;94548.06;5154552;27;20176;-46
2023/09/24 06:25:09;;;;;;;13.25;5.60;;;;;;;24.94;62.12;94544.84;5154141;27;20222;-47
2023/09/24 06:27:35;;;;;;;20.35;5.68;;;;;;;25.13;61.73;94544.72;5153748;27;20230;-48
2023/09/24 06:30:04;;;;;;;19.83;5.50;;;;;;;25.33;61.78;94545.13;5154147;27;20184;-46
2023/09/24 06:32:32;;;;;;;17.52;5.50;;;;;;;25.48;60.82;94549.88;5153663;27;20919;-47
2023/09/24 06:34:59;;;;;;;17.02;5.03;;;;;;;25.60;60.43;94537.50;5153937;27;20192;-46
2023/09/24 06:37:26;;;;;;;15.77;5.50;;;;;;;25.78;59.90;94552.28;5154180;27;20192;-46
2023/09/24 06:39:52;;;;;;;20.75;5.35;;;;;;;26.04;59.76;94545.66;5153986;27;20217;-46
2023/09/24 06:42:19;;;;;;;14.10;4.93;;;;;;;26.37;58.36;94559.78;5154139;27;20195;-45
2023/09/24 06:44:46;;;;;;;17.48;5.68;;;;;;;26.66;57.19;94555.25;5153770;27;20578;-45
2023/09/24 06:47:13;;;;;;;10.55;5.00;;;;;;;26.93;55.86;94547.47;5153974;27;20176;-46
2023/09/24 06:49:41;;;;;;;17.92;5.57;;;;;;;27.10;55.75;94557.97;5153366;27;20203;-45
2023/09/24 06:52:08;;;;;;;14.55;4.97;;;;;;;27.26;54.93;94551.84;5153550;27;20194;-47
2023/09/24 06:54:34;;;;;;;16.65;5.35;;;;;;;27.45;55.06;94549.69;5153631;27;20890;-46
2023/09/24 06:57:01;;;;;;;19.63;5.40;;;;;;;27.70;53.86;94551.81;5153449;27;20267;-45
2023/09/24 06:59:28;;;;;;;14.07;5.03;;;;;;;27.85;53.33;94553.81;5153068;27;20199;-47
2023/09/24 07:01:55;;;;;;;17.15;5.15;;;;;;;28.00;53.05;94543.44;5153308;27;20712;-46
2023/09/24 07:04:22;;;;;;;12.45;5.05;;;;;;;28.20;52.70;94548.09;5153103;27;20252;-47
2023/09/24 07:06:51;;;;;;;22.55;6.22;;;;;;;28.39;52.56;94553.78;5153515;27;20195;-47
2023/09/24 07:09:18;;;;;;;21.15;5.68;;;;;;;28.62;50.97;94545.50;5153002;27;20223;-45
2023/09/24 07:11:45;;;;;;;15.48;5.28;;;;;;;28.76;50.85;94548.50;5153562;27;20180;-45
2023/09/24 07:14:12;;;;;;;11.70;5.65;;;;;;;28.90;50.48;94544.34;5153212;27;20180;-47
2023/09/24 07:16:39;;;;;;;17.27;5.30;;;;;;;29.08;50.39;94553.69;5153049;27;20226;-47
2023/09/24 07:19:05;;;;;;;21.35;6.00;;;;;;;29.02;49.88;94548.63;5153275;27;20183;-47
2023/09/24 07:21:33;;;;;;;18.02;5.32;;;;;;;28.94;50.09;94537.53;5152733;27;20204;-45
2023/09/24 07:24:02;;;;;;;21.38;5.35;;;;;;;29.13;50.33;94558.19;5153051;27;20211;-46
2023/09/24 07:26:29;;;;;;;14.43;5.55;;;;;;;29.29;49.94;94556.41;5152672;27;20703;-48
2023/09/24 07:28:56;;;;;;;15.90;5.97;;;;;;;29.31;49.58;94562.19;5152945;27;20223;-46
2023/09/24 07:31:23;;;;;;;17.42;6.05;;;;;;;29.39;48.99;94559.06;5152644;27;20660;-46
2023/09/24 07:33:51;;;;;;;15.00;6.05;;;;;;;29.45;49.19;94566.75;5152982;27;20199;-45
2023/09/24 07:36:18;;;;;;;14.15;5.95;;;;;;;29.47;48.57;94558.56;5152705;27;20200;-46
2023/09/24 07:38:45;;;;;;;17.10;5.50;;;;;;;29.38;48.76;94555.66;5152772;27;20179;-47
2023/09/24 07:41:13;;;;;;;13.60;5.07;;;;;;;29.05;50.16;94562.09;5152176;27;20683;-46
2023/09/24 07:43:42;;;;;;;19.90;6.28;;;;;;;28.74;50.47;94547.94;5152563;27;20590;-46
2023/09/24 07:46:11;;;;;;;27.17;6.38;;;;;;;28.40;51.65;94550.88;5152253;27;20197;-45
2023/09/24 07:48:38;;;;;;;17.48;5.97;;;;;;;28.17;52.81;94559.88;5152501;27;20218;-48
2023/09/24 07:51:05;;;;;;;15.43;6.10;;;;;;;27.93;52.74;94548.09;5152771;27;20292;-48
2023/09/24 07:53:32;;;;;;;17.95;6.07;;;;;;;27.70;53.57;94549.97;5151925;27;20187;-46
2023/09/24 07:56:02;;;;;;;22.25;5.80;;;;;;;27.58;54.42;94546.69;5152223;27;20187;-46
2023/09/24 07:58:31;;;;;;;18.67;6.30;;;;;;;27.43;54.37;94552.59;5152429;27;20191;-44
2023/09/24 08:01:02;;;;;;;15.10;5.60;;;;;;;27.32;54.90;94543.00;5152276;27;20709;-48
2023/09/24 08:03:30;;;;;;;25.10;5.88;;;;;;;27.16;55.98;94542.03;5152472;27;20183;-46
2023/09/24 08:05:56;;;;;;;22.20;6.75;;;;;;;27.08;55.83;94531.13;5152444;27;20187;-47
2023/09/24 08:08:24;;;;;;;17.75;7.03;;;;;;;27.00;57.08;94533.16;5151665;27;20661;-46
2023/09/24 08:10:51;;;;;;;22.40;6.80;;;;;;;27.00;56.60;94533.16;5152584;27;20736;-49
2023/09/24 08:13:18;;;;;;;18.88;5.68;;;;;;;27.01;56.65;94531.31;5151647;27;20278;-45
2023/09/24 08:15:46;;;;;;;15.18;5.68;;;;;;;27.05;56.32;94529.78;5151996;27;20603;-48
2023/09/24 08:18:13;;;;;;;16.45;6.97;;;;;;;27.06;56.13;94526.13;5151432;27;20195;-46
2023/09/24 08:20:40;;;;;;;21.33;6.05;;;;;;;27.10;56.29;94522.00;5151243;27;20188;-47
2023/09/24 08:23:06;;;;;;;12.68;6.82;;;;;;;27.17;56.42;94512.13;5151314;27;20252;-46
2023/09/24 08:25:34;;;;;;;19.60;7.22;;;;;;;27.30;56.15;94508.31;5151955;27;20636;-44
2023/09/24 08:28:00;;;;;;;16.85;5.60;;;;;;;27.30;55.81;94504.91;5151499;27;20660;-46
2023/09/24 08:30:30;;;;;;;20.30;6.82;;;;;;;27.41;55.63;94506.56;5151840;27;20231;-46
2023/09/24 08:32:58;;;;;;;19.23;6.30;;;;;;;27.53;55.44;94507.22;5151875;27;20199;-46
2023/09/24 08:35:25;;;;;;;19.85;6.30;;;;;;;27.71;55.15;94506.09;5151669;27;20214;-46
2023/09/24 08:37:52;;;;;;;14.80;6.10;;;;;;;27.75;55.63;94505.38;5151393;27;20191;-48
2023/09/24 08:40:19;;;;;;;21.27;6.43;;;;;;;27.79;55.24;94500.41;5151544;27;20192;-46
2023/09/24 08:42:47;;;;;;;18.13;5.63;;;;;;;27.91;54.97;94502.88;5151701;27;20255;-46
2023/09/24 08:45:15;;;;;;;15.77;6.50;;;;;;;27.99;54.82;94492.69;5151330;27;20179;-45
2023/09/24 08:47:43;;;;;;;21.50;6.07;;;;;;;28.06;55.14;94492.47;5151417;27;20283;-43
2023/09/24 08:50:11;;;;;;;16.13;6.13;;;;;;;28.10;54.82;94490.94;5150841;27;20227;-46
2023/09/24 08:52:40;;;;;;;14.82;5.55;;;;;;;28.20;53.90;94495.50;5151268;27;20190;-46
2023/09/24 08:55:09;;;;;;;24.10;6.88;;;;;;;28.23;53.47;94487.06;5151201;27;20206;-45
2023/09/24 08:57:36;;;;;;;25.13;6.45;;;;;;;28.13;53.08;94481.75;5151306;27;20531;-46
2023/09/24 09:00:06;;;;;;;20.65;6.65;;;;;;;28.13;52.91;94490.44;5150911;27;20195;-47
2023/09/24 09:02:33;;;;;;;24.55;6.50;;;;;;;28.13;52.94;94481.75;5151417;27;20541;-45
2023/09/24 09:05:00;;;;;;;16.52;5.47;;;;;;;28.18;52.75;94484.41;5150566;27;20191;-48
2023/09/24 09:07:28;;;;;;;16.77;4.95;;;;;;;28.19;52.78;94486.00;5151422;27;20195;-46
2023/09/24 09:09:55;;;;;;;17.40;6.05;;;;;;;28.24;52.84;94489.47;5150680;27;20223;-47
2023/09/24 09:12:23;;;;;;;22.92;6.28;;;;;;;28.24;52.24;94489.47;5151419;27;20183;-48
2023/09/24 09:14:51;;;;;;;21.05;6.40;;;;;;;28.25;52.70;94490.25;5150948;27;20687;-45
2023/09/24 09:17:18;;;;;;;24.27;6.03;;;;;;;28.28;52.29;94481.84;5150873;27;20191;-46
2023/09/24 09:19:52;;;;;;;18.02;6.05;;;;;;;28.34;52.76;94488.75;5150768;27;20182;-47
2023/09/24 09:22:20;;;;;;;13.85;5.95;;;;;;;28.38;52.38;94486.44;5151193;27;20305;-46
2023/09/24 09:24:50;;;;;;;12.85;5.95;;;;;;;28.44;52.63;94486.19;5150910;27;20183;-44
2023/09/24 09:27:17;;;;;;;15.02;6.22;;;;;;;28.50;52.12;94485.19;5150668;27;20223;-44
2023/09/24 09:29:44;;;;;;;16.40;5.85;;;;;;;28.55;52.32;94489.69;5150885;27;20226;-45
2023/09/24 09:32:11;;;;;;;14.30;5.45;;;;;;;28.63;52.28;94483.94;5156889;27;20195;-46
2023/09/24 09:34:51;;;;;;;21.08;5.97;;;;;;;28.67;51.85;94490.28;5157805;27;20255;-44
2023/09/24 09:37:20;;;;;;;16.23;5.45;;;;;;;28.75;51.76;94483.72;5157628;27;20294;-46
2023/09/24 09:39:47;;;;;;;15.10;6.20;;;;;;;28.82;51.08;94492.19;5157848;27;20183;-45
2023/09/24 09:42:21;;;;;;;12.43;5.03;;;;;;;28.88;51.30;94485.88;5157605;27;20191;-50
2023/09/24 09:44:52;;;;;;;17.17;6.28;;;;;;;28.96;50.59;94489.91;5158131;27;20201;-46
2023/09/24 09:47:20;;;;;;;14.00;5.80;;;;;;;29.08;50.84;94484.41;5157181;27;20760;-46
2023/09/24 09:49:53;;;;;;;16.98;5.72;;;;;;;29.03;50.35;94463.34;5157505;27;20307;-46
2023/09/24 09:52:23;;;;;;;21.90;5.88;;;;;;;29.20;50.32;94498.94;5157509;27;20205;-46
2023/09/24 09:54:54;;;;;;;15.20;5.78;;;;;;;29.17;50.13;94499.47;5157654;27;20263;-45
2023/09/24 09:57:22;;;;;;;14.32;5.63;;;;;;;29.23;49.80;94489.72;5157309;27;20282;-47
2023/09/24 09:59:49;;;;;;;22.70;6.07;;;;;;;29.22;49.68;94493.41;5157552;27;20617;-45
2023/09/24 10:02:17;;;;;;;13.07;6.05;;;;;;;29.36;49.50;94504.25;5157135;27;20691;-45
2023/09/24 10:04:44;;;;;;;24.35;5.82;;;;;;;29.42;48.60;94495.31;5157524;27;20197;-45
2023/09/24 10:07:11;;;;;;;16.35;5.00;;;;;;;29.43;47.02;94489.78;5157385;27;20188;-45
2023/09/24 10:09:39;;;;;;;17.15;5.45;;;;;;;29.07;47.38;94467.03;5157388;27;20203;-46
2023/09/24 10:12:08;;;;;;;17.77;5.95;;;;;;;29.14;47.76;94494.69;5156969;27;20195;-45
2023/09/24 10:14:37;;;;;;;11.75;6.03;;;;;;;29.07;48.44;94482.84;5157219;27;20183;-47
2023/09/24 10:17:23;;;;;;;22.30;5.38;;;;;;;29.06;48.09;94489.13;5156869;27;20210;-46
2023/09/24 10:19:51;;;;;;;16.58;5.97;;;;;;;28.96;48.37;94480.16;5157497;27;20183;-45
2023/09/24 10:22:29;;;;;;;21.30;6.07;;;;;;;28.90;48.27;94486.44;5156902;27;20184;-47
2023/09/24 10:24:57;;;;;;;12.95;5.43;;;;;;;28.91;48.53;94484.59;5157158;27;20625;-45
2023/09/24 10:27:28;;;;;;;20.63;5.28;;;;;;;28.88;48.86;94477.19;5156811;27;20775;-47
2023/09/24 10:30:09;;;;;;;13.65;5.90;;;;;;;28.89;49.01;94481.44;5157391;27;20211;-46
2023/09/24 10:32:44;;;;;;;18.58;5.78;;;;;;;28.86;48.92;94479.31;5157226;27;20187;-46
2023/09/24 10:35:12;;;;;;;21.52;6.32;;;;;;;28.84;48.96;94476.91;5156893;27;20198;-46
2023/09/24 10:38:03;;;;;;;24.00;6.10;;;;;;;28.74;48.84;94480.31;5157330;27;20195;-45
2023/09/24 10:40:32;;;;;;;16.33;5.82;;;;;;;28.69;49.17;94472.38;5156947;27;20271;-46
2023/09/24 10:43:17;;;;;;;20.83;6.30;;;;;;;28.67;49.74;94473.69;5156658;27;20276;-46
2023/09/24 10:45:46;;;;;;;19.40;5.70;;;;;;;28.77;49.32;94467.69;5160853;27;20187;-46
2023/09/24 10:48:14;;;;;;;24.70;6.50;;;;;;;28.71;49.24;94464.22;5154214;27;20188;-46
2023/09/24 10:50:43;;;;;;;18.90;5.63;;;;;;;28.77;49.68;94462.44;5153472;27;20215;-47
2023/09/24 10:53:10;;;;;;;23.83;6.00;;;;;;;28.78;49.49;94464.78;5154020;27;20176;-46
2023/09/24 10:55:39;;;;;;;23.95;6.45;;;;;;;28.70;49.78;94455.53;5153897;27;20184;-46
2023/09/24 10:58:11;;;;;;;20.65;6.13;;;;;;;28.57;49.77;94427.06;5153627;27;20244;-46
2023/09/24 11:00:38;;;;;;;21.13;5.65;;;;;;;28.80;49.42;94460.06;5153097;27;20252;-48
2023/09/24 11:03:08;;;;;;;24.35;5.45;;;;;;;28.84;49.63;94447.16;5153498;27;20191;-46
2023/09/24 11:05:41;;;;;;;18.42;4.97;;;;;;;28.78;49.81;94448.22;5153498;27;20310;-48
2023/09/24 11:08:09;;;;;;;20.60;5.53;;;;;;;28.79;49.90;94441.88;5153598;27;20192;-47
2023/09/24 11:10:36;;;;;;;17.52;6.03;;;;;;;28.91;50.01;94451.16;5153234;27;20707;-48
2023/09/24 11:13:05;;;;;;;15.50;5.55;;;;;;;29.01;49.80;94437.25;5153461;27;20556;-48
2023/09/24 11:15:33;;;;;;;14.65;4.88;;;;;;;29.08;48.71;94444.91;5152996;27;20624;-46
2023/09/24 11:18:01;;;;;;;17.88;6.07;;;;;;;29.09;48.69;94442.03;5153555;27;20185;-47
2023/09/24 11:20:31;;;;;;;19.98;5.65;;;;;;;29.06;48.63;94445.19;5152885;27;20195;-51
2023/09/24 11:22:59;;;;;;;20.23;4.82;;;;;;;28.98;49.07;94449.09;5153277;27;20192;-47
2023/09/24 11:25:26;;;;;;;20.23;6.22;;;;;;;29.03;49.55;94452.81;5152641;27;20190;-47
2023/09/24 11:27:54;;;;;;;21.52;5.97;;;;;;;28.99;48.68;94449.91;5152734;27;20198;-47